createdAt,value
2019-04-27T00:01:23.294Z,9.97
2019-04-27T00:06:29.788Z,10.15
2019-04-27T00:11:45.481Z,9.96
2019-04-27T00:17:12.910Z,10.14
2019-04-27T00:22:28.455Z,9.98
2019-04-27T00:27:33.934Z,10.03
2019-04-27T00:32:39.888Z,9.77
2019-04-27T00:37:54.922Z,9.81
2019-04-27T00:43:00.255Z,9.88
2019-04-27T00:48:05.891Z,9.84
2019-04-27T00:53:16.764Z,9.79
2019-04-27T00:58:33.840Z,10.04
2019-04-27T01:04:03.627Z,9.79
2019-04-27T01:09:13.361Z,9.97
2019-04-27T01:14:19.107Z,9.81
2019-04-27T01:19:24.584Z,9.85
2019-04-27T01:24:30.724Z,9.83
2019-04-27T01:29:36.757Z,9.77
2019-04-27T01:34:42.229Z,9.76
2019-04-27T01:39:48.597Z,9.86
2019-04-27T01:44:55.104Z,9.91
2019-04-27T01:50:00.641Z,9.88
2019-04-27T01:55:08.649Z,9.68
2019-04-27T02:00:40.469Z,9.74
2019-04-27T02:05:56.162Z,9.78
2019-04-27T02:11:03.581Z,9.68
2019-04-27T02:16:09.419Z,9.75
2019-04-27T02:21:14.872Z,9.74
2019-04-27T02:26:21.562Z,9.77
2019-04-27T02:31:35.871Z,9.70
2019-04-27T02:36:41.278Z,9.59
2019-04-27T02:41:49.885Z,9.60
2019-04-27T02:46:55.365Z,9.79
2019-04-27T02:52:09.546Z,9.65
2019-04-27T02:57:15.417Z,9.89
2019-04-27T03:02:45.474Z,9.67
2019-04-27T03:07:50.924Z,9.72
2019-04-27T03:13:03.820Z,9.72
2019-04-27T03:18:13.982Z,9.90
2019-04-27T03:23:20.014Z,9.86
2019-04-27T03:28:26.131Z,9.85
2019-04-27T03:33:32.890Z,9.67
2019-04-27T03:38:39.858Z,9.85
2019-04-27T03:43:45.501Z,9.84
2019-04-27T03:48:51.861Z,9.78
2019-04-27T03:54:12.642Z,9.76
2019-04-27T03:59:42.856Z,9.87
2019-04-27T04:04:50.714Z,9.78
2019-04-27T04:09:55.586Z,9.87
2019-04-27T04:15:00.988Z,9.90
2019-04-27T04:20:10.132Z,9.90
2019-04-27T04:25:16.565Z,9.92
2019-04-27T04:30:22.748Z,9.77
2019-04-27T04:35:32.439Z,9.77
2019-04-27T04:40:41.906Z,9.86
2019-04-27T04:45:56.480Z,9.92
2019-04-27T04:51:02.336Z,9.97
2019-04-27T04:56:08.581Z,9.95
2019-04-27T05:01:16.915Z,9.83
2019-04-27T05:06:25.616Z,9.89
2019-04-27T05:11:31.142Z,9.87
2019-04-27T05:16:39.093Z,9.83
2019-04-27T05:21:45.681Z,9.89
2019-04-27T05:26:51.631Z,9.84
2019-04-27T05:31:59.177Z,9.93
2019-04-27T05:37:05.724Z,9.98
2019-04-27T05:42:16.969Z,9.94
2019-04-27T05:47:43.361Z,10.13
2019-04-27T05:52:49.648Z,10.09
2019-04-27T05:57:59.165Z,10.06
2019-04-27T06:03:08.985Z,9.92
2019-04-27T06:08:14.330Z,10.16
2019-04-27T06:13:20.124Z,10.08
2019-04-27T06:18:27.073Z,10.21
2019-04-27T06:23:33.083Z,10.20
2019-04-27T06:28:53.780Z,10.31
2019-04-27T06:34:01.042Z,10.34
2019-04-27T06:39:09.926Z,10.51
2019-04-27T06:44:15.554Z,10.91
2019-04-27T06:49:20.880Z,10.88
2019-04-27T06:54:28.682Z,11.43
2019-04-27T06:59:33.806Z,11.42
2019-04-27T07:04:41.868Z,11.38
2019-04-27T07:09:49.286Z,12.17
2019-04-27T07:14:55.196Z,12.88
2019-04-27T07:20:02.613Z,13.30
2019-04-27T07:25:09.067Z,12.61
2019-04-27T07:30:15.670Z,12.53
2019-04-27T07:35:22.725Z,12.47
2019-04-27T07:40:30.340Z,12.26
2019-04-27T07:45:39.578Z,12.58
2019-04-27T07:50:46.240Z,12.70
2019-04-27T07:55:51.489Z,12.54
2019-04-27T08:00:57.122Z,13.46
2019-04-27T08:06:02.602Z,13.10
2019-04-27T08:11:08.846Z,13.41
2019-04-27T08:16:15.429Z,12.98
2019-04-27T08:21:20.950Z,13.43
2019-04-27T08:26:32.377Z,13.28
2019-04-27T08:31:55.351Z,13.97
2019-04-27T08:37:00.854Z,13.84
2019-04-27T08:42:06.570Z,13.75
2019-04-27T08:47:15.168Z,14.32
2019-04-27T08:52:20.620Z,14.74
2019-04-27T08:57:25.852Z,14.40
2019-04-27T09:02:44.437Z,14.52
2019-04-27T09:07:59.779Z,14.45
2019-04-27T09:13:15.704Z,14.34
2019-04-27T09:18:23.051Z,14.64
2019-04-27T09:23:28.763Z,14.64
2019-04-27T09:28:34.015Z,14.62
2019-04-27T09:33:39.520Z,15.01
2019-04-27T09:38:46.507Z,15.39
2019-04-27T09:43:53.133Z,15.09
2019-04-27T09:48:58.539Z,15.16
2019-04-27T09:54:05.869Z,15.95
2019-04-27T09:59:11.845Z,15.74
2019-04-27T10:04:21.125Z,16.42
2019-04-27T10:09:29.519Z,16.58
2019-04-27T10:14:34.011Z,16.62
2019-04-27T10:19:39.276Z,16.79
2019-04-27T10:24:44.909Z,16.71
2019-04-27T10:29:50.438Z,16.72
2019-04-27T10:34:56.214Z,17.23
2019-04-27T10:40:01.576Z,17.06
2019-04-27T10:45:13.724Z,16.57
2019-04-27T10:50:19.999Z,16.38
2019-04-27T10:55:26.200Z,16.08
2019-04-27T11:00:39.864Z,16.06
2019-04-27T11:06:05.996Z,15.32
2019-04-27T11:11:12.472Z,16.08
2019-04-27T11:16:20.287Z,15.92
2019-04-27T11:21:26.235Z,16.42
2019-04-27T11:26:33.278Z,16.03
2019-04-27T11:31:38.542Z,16.53
2019-04-27T11:36:55.946Z,16.34
2019-04-27T11:42:01.363Z,16.32
2019-04-27T11:47:06.847Z,16.52
2019-04-27T11:52:16.202Z,16.51
2019-04-27T11:57:28.500Z,16.69
2019-04-27T12:02:35.801Z,16.44
2019-04-27T12:07:47.871Z,16.16
2019-04-27T12:12:56.324Z,16.18
2019-04-27T12:18:02.577Z,16.07
2019-04-27T12:23:07.976Z,16.04
2019-04-27T12:28:23.569Z,16.41
2019-04-27T12:33:30.412Z,17.31
2019-04-27T12:38:36.646Z,16.95
2019-04-27T12:43:46.739Z,18.02
2019-04-27T12:48:55.314Z,18.17
2019-04-27T12:54:08.932Z,17.50
2019-04-27T12:59:32.058Z,17.74
2019-04-27T13:04:38.415Z,18.73
2019-04-27T13:09:46.046Z,18.63
2019-04-27T13:14:51.634Z,18.02
2019-04-27T13:19:57.376Z,17.74
2019-04-27T13:25:02.698Z,18.59
2019-04-27T13:30:10.616Z,18.74
2019-04-27T13:35:16.565Z,18.57
2019-04-27T13:40:22.497Z,18.12
2019-04-27T13:45:38.627Z,18.86
2019-04-27T13:50:47.990Z,17.86
2019-04-27T13:55:56.613Z,17.52
2019-04-27T14:01:02.846Z,17.84
2019-04-27T14:06:08.446Z,17.83
2019-04-27T14:11:15.555Z,17.35
2019-04-27T14:16:21.753Z,17.30
2019-04-27T14:21:34.413Z,17.25
2019-04-27T14:26:40.795Z,16.75
2019-04-27T14:31:49.695Z,16.87
2019-04-27T14:36:58.752Z,16.96
2019-04-27T14:42:04.577Z,16.58
2019-04-27T14:47:13.371Z,17.09
2019-04-27T14:52:20.370Z,17.45
2019-04-27T14:57:29.189Z,17.46
2019-04-27T15:02:35.028Z,17.50
2019-04-27T15:07:40.500Z,17.25
2019-04-27T15:12:45.821Z,17.33
2019-04-27T15:17:51.240Z,17.03
2019-04-27T15:22:57.940Z,16.75
2019-04-27T15:28:12.197Z,16.59
2019-04-27T15:33:36.213Z,16.67
2019-04-27T15:38:51.200Z,16.80
2019-04-27T15:43:55.394Z,16.64
2019-04-27T15:49:03.173Z,16.54
2019-04-27T15:54:12.012Z,16.52
2019-04-27T15:59:21.125Z,16.15
2019-04-27T16:04:28.239Z,16.64
2019-04-27T16:09:33.625Z,16.79
2019-04-27T16:14:40.983Z,16.65
2019-04-27T16:19:50.231Z,16.89
2019-04-27T16:24:58.120Z,16.59
2019-04-27T16:30:09.584Z,16.97
2019-04-27T16:35:14.049Z,16.79
2019-04-27T16:40:24.459Z,16.64
2019-04-27T16:45:28.768Z,16.56
2019-04-27T16:50:34.217Z,16.77
2019-04-27T16:55:40.311Z,16.65
2019-04-27T17:00:47.644Z,16.71
2019-04-27T17:05:53.199Z,16.66
2019-04-27T17:11:08.047Z,16.60
2019-04-27T17:16:18.867Z,16.42
2019-04-27T17:21:25.717Z,16.31
2019-04-27T17:26:31.586Z,16.15
2019-04-27T17:31:40.282Z,16.07
2019-04-27T17:36:48.466Z,15.93
2019-04-27T17:41:55.368Z,15.64
2019-04-27T17:47:01.651Z,15.52
2019-04-27T17:52:08.777Z,15.46
2019-04-27T17:57:17.953Z,15.34
2019-04-27T18:02:23.827Z,15.13
2019-04-27T18:07:34.870Z,15.24
2019-04-27T18:12:39.026Z,14.92
2019-04-27T18:17:50.090Z,14.68
2019-04-27T18:22:58.934Z,14.81
2019-04-27T18:28:15.992Z,14.87
2019-04-27T18:33:18.547Z,14.97
2019-04-27T18:38:25.645Z,14.12
2019-04-27T18:43:31.187Z,13.47
2019-04-27T18:49:01.320Z,13.25
2019-04-27T18:54:08.146Z,13.24
2019-04-27T18:59:14.718Z,12.76
2019-04-27T19:04:20.242Z,12.85
2019-04-27T19:09:25.680Z,12.61
2019-04-27T19:14:31.346Z,12.27
2019-04-27T19:19:36.607Z,12.08
2019-04-27T19:24:42.118Z,12.27
2019-04-27T19:29:51.643Z,12.14
2019-04-27T19:34:59.342Z,11.96
2019-04-27T19:40:05.432Z,12.41
2019-04-27T19:45:13.345Z,12.08
2019-04-27T19:50:19.640Z,12.11
2019-04-27T19:55:25.880Z,12.37
2019-04-27T20:00:48.762Z,12.27
2019-04-27T20:05:54.597Z,12.26
2019-04-27T20:11:00.107Z,12.50
2019-04-27T20:16:05.647Z,11.68
2019-04-27T20:21:12.402Z,12.19
2019-04-27T20:26:17.919Z,11.91
2019-04-27T20:31:23.244Z,11.98
2019-04-27T20:36:28.452Z,11.85
2019-04-27T20:41:34.348Z,11.95
2019-04-27T20:46:41.569Z,12.27
2019-04-27T20:52:04.905Z,12.09
2019-04-27T20:57:13.832Z,12.01
2019-04-27T21:02:52.105Z,12.19
2019-04-27T21:08:01.549Z,11.93
2019-04-27T21:13:06.869Z,11.83
2019-04-27T21:18:14.431Z,11.92
2019-04-27T21:23:21.064Z,11.83
2019-04-27T21:28:26.609Z,11.52
2019-04-27T21:33:34.216Z,11.99
2019-04-27T21:38:41.138Z,12.02
2019-04-27T21:43:46.848Z,11.76
2019-04-27T21:48:53.151Z,12.07
2019-04-27T21:54:04.002Z,12.03
2019-04-27T21:59:10.729Z,12.07
2019-04-27T22:04:16.758Z,11.80
2019-04-27T22:09:22.576Z,11.55
2019-04-27T22:14:27.863Z,11.24
2019-04-27T22:19:34.800Z,11.13
2019-04-27T22:24:42.846Z,11.22
2019-04-27T22:29:47.609Z,11.14
2019-04-27T22:34:53.724Z,10.99
2019-04-27T22:40:18.439Z,11.19
2019-04-27T22:45:27.838Z,10.93
2019-04-27T22:50:33.072Z,10.79
2019-04-27T22:55:57.443Z,10.56
2019-04-27T23:01:12.129Z,10.57
2019-04-27T23:06:17.915Z,10.44
2019-04-27T23:11:23.404Z,10.08
2019-04-27T23:16:31.934Z,10.03
2019-04-27T23:21:38.211Z,9.77
2019-04-27T23:26:44.072Z,9.50
2019-04-27T23:31:58.323Z,9.67
2019-04-27T23:37:03.710Z,9.64
2019-04-27T23:42:09.049Z,9.71
2019-04-27T23:47:14.458Z,9.83
2019-04-27T23:52:25.611Z,9.66
2019-04-27T23:57:31.670Z,9.43
